Airfield :
LOGIN :

Register | Disclaimer

   EN    FR    IT 

 










Legend :    VFR   Marginal VFR   IFR   Intensive IFR   Very Intensive IFR
Visi :
Ceiling :
>= 8 km
>= 3000ft
5 to 8 km
1000 to 3000 ft
1500m to 5 km
500 to 1000 ft
800 to 1500m
200 to 500 ft
< 800m
< 200 ft
Symbols :   Thunderstorms  Fog  Heavy snow  Heavy precipitations  Wind > 20 kt
SIGMETs :     Misc.  Thunderstorms  Icing  Turbulence  Mountain Waves  Volcanic Ashes







- Airport Elevation : 44 ft
- IATA code : SOU
- Download approach charts


EGHI - Southampton

CURRENT METAR :
  • 220850Z 21017G27KT 9999 FEW018 BKN025 13/09 Q1001

EXPIRED METARs :
  • 220820Z 21016G26KT 180V240 9999 FEW015 BKN018 13/10 Q1001
  • 220750Z 21015KT 9999 FEW015 BKN018 13/10 Q1001
  • 220720Z 21013KT 180V240 9999 FEW013 SCT018 13/10 Q1001
  • 220650Z 22012KT 190V250 9999 FEW013 BKN018 13/10 Q1002
  • 220620Z 21012KT 190V250 9999 FEW013 BKN018 13/10 Q1002

TAF TAF EGHI
Valid from the 22 at 09:00 until the 22 at 18:00 UTC


220802Z 2209/2218 21012KT 9999 BKN020
BECMG 2209/2211 21018G28KT
PROB30
TEMPO 2209/2215 BKN014
TEMPO 2211/2218 21025G38KT
ATIS : +44 23 8062 7103
No reported NOTAMs for that airfield.
2 SIGMETs reported for the London FIR (EGTT) :
 
Severe turbulence
EGTT SIGMET 03 VALID 220803/221000 EGRR
EGTT LONDON FIR SEV TURB FCST WI N5100 W00800 - N5220 W00530 - N5318 W00530 - N5348 W00353 - N5139 W00412 - N5047 W00532 - N4920 W00534 - N4850 W00800 - N5100 W00800 SFC/FL060 MOV E 10KT INTSF=
Severe mountain waves
EGTT SIGMET 02 VALID 220600/221000 EGRR
EGTT LONDON FIR SEV MTW FCST WI N5500 E00045 - N5412 E00110 - N5047 W00255 - N5045 W00430 - N5310 W00414 - N5500 W00415 - N5500 E00045 FL040/180 STNR NC=



MET'MAP, your aeronautical weather chart ! - Copyright ORBIFLY December 2007 - Disclaimer

ORBIFLY MET'MAP TEAM :

Programming & Development : Alexandra Zaïnal
Concept & Development : Baudouin d'Aumeries
Co-Development & Prog : Marc-Olivier Méhu
Technical & hardware support : Manuel Goepfert

Contact : metmap@orbifly.com




SOURCES & CREDITS :

   NOAA